Time;durP1;ratioP1;P1;durP2;ratioP2;P2;SDS_P1;SDS_P2;PMS_P1;PMS_P2;Temp;Humidity;BMP_temperature;BMP_pressure;BME280_temperature;BME280_humidity;BME280_pressure;Samples;Min_cycle;Max_cycle;Signal;HPM_P1;HPM_P2
2022/03/05 00:00:08;;;;;;;;;58.50;44.75;;;;;10.55;63.77;101245.59;5117098;27;45759;-80
2022/03/05 00:02:33;;;;;;;;;54.25;40.75;;;;;11.22;64.23;101365.50;5112472;27;45290;-80
2022/03/05 00:04:58;;;;;;;;;52.50;39.75;;;;;11.10;64.35;101346.38;5112163;27;46330;-79
2022/03/05 00:07:24;;;;;;;;;52.25;39.00;;;;;11.24;63.97;101365.56;5118521;27;45429;-77
2022/03/05 00:09:49;;;;;;;;;60.25;43.00;;;;;11.14;64.35;101344.72;5112731;27;45389;-75
2022/03/05 00:12:14;;;;;;;;;57.75;42.75;;;;;11.36;64.25;101378.44;5117108;27;45522;-78
2022/03/05 00:14:40;;;;;;;;;50.25;39.00;;;;;11.35;63.74;101377.53;5117875;27;45472;-77
2022/03/05 00:17:06;;;;;;;;;48.25;36.00;;;;;10.93;64.83;101303.03;5118482;27;45578;-79
2022/03/05 00:19:34;;;;;;;;;62.75;48.50;;;;;11.11;64.21;101320.56;5114197;27;45500;-80
2022/03/05 00:22:01;;;;;;;;;51.00;36.25;;;;;11.07;64.58;101317.78;5099154;27;45537;-71
2022/03/05 00:24:27;;;;;;;;;54.25;42.50;;;;;11.39;64.29;101371.41;5098227;27;47338;-73
2022/03/05 00:26:53;;;;;;;;;49.50;37.25;;;;;11.15;63.93;101335.81;5098565;27;45449;-80
2022/03/05 00:29:18;;;;;;;;;69.25;44.75;;;;;11.22;64.56;101338.75;5098607;27;45427;-81
2022/03/05 00:31:44;;;;;;;;;150.00;130.00;;;;;11.12;64.01;101317.00;5098333;27;45325;-80
2022/03/05 00:34:09;;;;;;;;;55.50;38.25;;;;;11.18;63.91;101338.59;5114399;27;46082;-82
2022/03/05 00:36:36;;;;;;;;;50.75;39.25;;;;;11.24;64.47;101342.38;5117794;27;45464;-81
2022/03/05 00:39:01;;;;;;;;;49.25;35.50;;;;;11.15;64.22;101330.47;5117518;27;45576;-78
2022/03/05 00:41:26;;;;;;;;;52.75;40.50;;;;;11.33;64.19;101343.56;5085991;27;45434;-79
2022/03/05 00:43:52;;;;;;;;;50.00;36.75;;;;;11.47;64.16;101366.31;5102882;27;45695;-81
2022/03/05 00:46:17;;;;;;;;;53.25;40.00;;;;;11.47;64.16;101377.03;5098640;27;45575;-79
2022/03/05 00:48:42;;;;;;;;;55.50;40.00;;;;;11.44;64.51;101380.50;5110824;27;45457;-81
2022/03/05 00:51:08;;;;;;;;;44.50;33.75;;;;;11.44;64.09;101366.22;5118207;27;45463;-76
2022/03/05 00:53:33;;;;;;;;;49.50;38.25;;;;;11.42;64.05;101373.31;5118249;27;45491;-77
2022/03/05 00:55:58;;;;;;;;;46.75;36.00;;;;;11.43;63.68;101369.75;5105211;27;45523;-78
2022/03/05 00:58:24;;;;;;;;;46.00;33.50;;;;;11.27;63.71;101338.00;5111884;27;45537;-77
2022/03/05 01:00:49;;;;;;;;;38.50;35.00;;;;;11.45;63.41;101373.41;5118693;27;45292;-78
2022/03/05 01:03:14;;;;;;;;;47.50;34.00;;;;;11.44;63.58;101364.44;5080839;27;48210;-76
2022/03/05 01:05:40;;;;;;;;;41.50;32.00;;;;;11.44;63.65;101359.09;5116212;27;45287;-73
2022/03/05 01:08:05;;;;;;;;;36.25;26.00;;;;;11.44;63.66;101360.88;5106626;27;45278;-82
2022/03/05 01:10:31;;;;;;;;;43.50;33.75;;;;;11.44;63.57;101363.53;5098437;27;45634;-80
2022/03/05 01:12:56;;;;;;;;;54.50;39.75;;;;;11.34;63.43;101342.72;5108524;27;46169;-69
2022/03/05 01:15:22;;;;;;;;;42.00;37.50;;;;;11.36;63.98;101354.34;5082453;27;45408;-81
2022/03/05 01:17:47;;;;;;;;;49.00;38.00;;;;;11.38;63.83;101361.59;5098659;27;45507;-77
2022/03/05 01:20:13;;;;;;;;;49.25;35.50;;;;;11.13;63.28;101317.06;5101238;27;45442;-76
2022/03/05 01:22:38;;;;;;;;;71.50;54.00;;;;;11.17;63.68;101320.72;5098611;27;46578;-77
2022/03/05 01:25:05;;;;;;;;;54.50;38.75;;;;;11.38;62.81;101358.91;5117253;27;45420;-81
2022/03/05 01:27:30;;;;;;;;;45.25;36.00;;;;;11.17;63.15;101329.69;5118070;27;45556;-80
2022/03/05 01:29:55;;;;;;;;;42.25;37.25;;;;;11.37;63.16;101365.13;5118008;27;45386;-74
2022/03/05 01:32:21;;;;;;;;;39.25;33.50;;;;;11.24;62.99;101342.38;5117821;27;45387;-81
2022/03/05 01:34:46;;;;;;;;;43.00;34.75;;;;;11.33;63.59;101362.28;5117448;27;45552;-78
2022/03/05 01:37:11;;;;;;;;;51.50;39.50;;;;;11.33;63.22;101357.81;5117339;27;45350;-79
2022/03/05 01:39:37;;;;;;;;;37.50;33.00;;;;;11.14;62.97;101329.56;5117096;27;45499;-76
2022/03/05 01:42:04;;;;;;;;;43.75;32.25;;;;;11.04;63.28;101311.41;5084973;27;48075;-82
2022/03/05 01:44:29;;;;;;;;;47.75;38.75;;;;;11.31;62.99;101359.56;5091968;27;45281;-77
2022/03/05 01:46:55;;;;;;;;;45.50;35.75;;;;;11.11;63.65;101320.56;5117492;27;45445;-78
2022/03/05 01:49:20;;;;;;;;;50.25;38.75;;;;;11.05;63.14;101319.50;5117400;27;45382;-79
2022/03/05 01:51:46;;;;;;;;;42.75;34.00;;;;;11.35;63.56;101368.59;5085128;27;46965;-80
2022/03/05 01:54:13;;;;;;;;;44.00;33.75;;;;;11.20;62.22;101347.59;5110405;27;45540;-78
2022/03/05 01:56:39;;;;;;;;;36.50;33.00;;;;;11.22;62.73;101353.91;5117154;27;45396;-78
2022/03/05 01:59:06;;;;;;;;;38.50;32.50;;;;;11.27;62.65;101378.13;5117104;27;45522;-81
2022/03/05 02:01:32;;;;;;;;;43.50;35.00;;;;;11.27;62.89;101367.41;5116769;27;46190;-82
2022/03/05 02:03:57;;;;;;;;;39.50;34.00;;;;;11.18;62.74;101358.22;5117639;27;45313;-81
2022/03/05 02:06:24;;;;;;;;;54.25;35.00;;;;;10.92;62.67;101311.88;5099205;27;45479;-81
2022/03/05 02:08:50;;;;;;;;;37.25;31.00;;;;;11.24;62.50;101366.47;5081663;27;45353;-79
2022/03/05 02:11:16;;;;;;;;;47.50;34.50;;;;;11.23;63.29;101369.97;5113737;27;46086;-79
2022/03/05 02:13:42;;;;;;;;;38.00;32.50;;;;;11.08;62.95;101342.75;5116973;27;45381;-80
2022/03/05 02:16:08;;;;;;;;;41.00;31.75;;;;;11.03;63.10;101342.56;5097951;27;45334;-79
2022/03/05 02:18:34;;;;;;;;;32.25;26.50;;;;;11.14;62.75;101367.03;5116862;27;45848;-78
2022/03/05 02:20:59;;;;;;;;;39.75;32.00;;;;;11.17;63.63;101367.13;5098561;27;46941;-68
2022/03/05 02:23:25;;;;;;;;;39.25;34.00;;;;;10.93;63.26;101326.19;5117929;27;44830;-79
2022/03/05 02:25:55;;;;;;;;;40.50;33.00;;;;;11.18;63.15;101360.91;5116992;27;45503;-75
2022/03/05 02:28:22;;;;;;;;;47.00;33.75;;;;;11.17;63.17;101356.44;5116687;27;45239;-81
2022/03/05 02:30:48;;;;;;;;;41.00;31.00;;;;;11.18;63.30;101360.00;5115789;27;47833;-76
2022/03/05 02:33:15;;;;;;;;;38.50;29.00;;;;;11.00;63.48;101329.09;5116140;27;45296;-76
2022/03/05 02:35:43;;;;;;;;;41.75;34.00;;;;;11.03;63.57;101336.31;5115759;27;45355;-80
2022/03/05 02:38:08;;;;;;;;;39.75;34.25;;;;;10.88;63.45;101312.66;5116245;27;45491;-81
2022/03/05 02:40:34;;;;;;;;;45.25;35.50;;;;;10.99;63.14;101324.63;5115685;27;45583;-80
2022/03/05 02:43:00;;;;;;;;;32.25;30.75;;;;;10.90;63.26;101304.69;5116111;27;45739;-80
2022/03/05 02:45:25;;;;;;;;;42.25;35.75;;;;;11.17;62.88;101350.16;5116295;27;45224;-75
2022/03/05 02:47:51;;;;;;;;;37.50;33.50;;;;;11.17;62.92;101356.44;5116737;27;45441;-77
2022/03/05 02:50:16;;;;;;;;;38.50;30.25;;;;;11.16;62.78;101349.25;5116229;27;45450;-75
2022/03/05 02:52:41;;;;;;;;;35.00;26.50;;;;;11.08;62.17;101337.38;5116108;27;45361;-82
2022/03/05 02:55:07;;;;;;;;;35.25;32.25;;;;;10.97;62.05;101325.41;5116516;27;45542;-80
2022/03/05 02:57:33;;;;;;;;;40.00;31.75;;;;;11.05;62.02;101329.25;5116054;27;45655;-78
2022/03/05 02:59:58;;;;;;;;;36.50;29.25;;;;;10.78;62.43;101287.38;5115835;27;46051;-80
2022/03/05 03:02:24;;;;;;;;;37.25;30.00;;;;;11.12;62.36;101336.66;5116180;27;45522;-80
2022/03/05 03:04:49;;;;;;;;;45.50;31.75;;;;;11.11;62.09;101336.59;5116112;27;45308;-79
2022/03/05 03:07:15;;;;;;;;;40.75;33.50;;;;;11.12;62.35;101338.38;5116375;27;45586;-82
2022/03/05 03:09:41;;;;;;;;;31.75;26.75;;;;;10.82;62.43;101296.41;5116097;27;46286;-80
2022/03/05 03:12:07;;;;;;;;;36.75;27.00;;;;;11.09;62.94;101340.97;5080513;27;45530;-82
2022/03/05 03:14:33;;;;;;;;;42.75;33.25;;;;;10.96;62.82;101313.81;5114190;27;45325;-77
2022/03/05 03:16:58;;;;;;;;;43.75;34.50;;;;;10.76;62.54;101283.75;5116268;27;45538;-80
2022/03/05 03:19:24;;;;;;;;;35.00;29.00;;;;;11.11;62.77;101340.16;5116409;27;45937;-79
2022/03/05 03:21:49;;;;;;;;;35.00;28.25;;;;;11.06;62.73;101336.44;5116213;27;45503;-81
2022/03/05 03:24:14;;;;;;;;;30.25;29.00;;;;;10.86;62.32;101303.69;5100397;27;45665;-80
2022/03/05 03:26:40;;;;;;;;;37.50;30.50;;;;;10.69;62.53;101263.91;5091542;27;45567;-80
2022/03/05 03:29:05;;;;;;;;;31.50;25.50;;;;;11.07;62.49;101332.91;5096839;27;46146;-80
2022/03/05 03:31:31;;;;;;;;;36.50;29.00;;;;;11.09;61.98;101332.94;5092256;27;45529;-81
2022/03/05 03:33:56;;;;;;;;;39.75;33.75;;;;;10.74;62.40;101280.13;5095998;27;45285;-80
2022/03/05 03:36:21;;;;;;;;;38.00;30.25;;;;;11.04;62.43;101338.16;5096286;27;45604;-79
2022/03/05 03:38:47;;;;;;;;;48.50;37.50;;;;;10.60;62.69;101260.91;5096023;27;46294;-79
2022/03/05 03:41:12;;;;;;;;;38.00;32.00;;;;;10.93;63.02;101334.19;5102239;27;45366;-77
2022/03/05 03:43:38;;;;;;;;;46.50;34.50;;;;;10.93;62.97;101335.09;5090653;27;45492;-80
2022/03/05 03:46:03;;;;;;;;;42.50;34.25;;;;;10.86;62.60;101319.72;5115143;27;45358;-79
2022/03/05 03:48:29;;;;;;;;;36.00;32.75;;;;;10.86;62.91;101336.66;5115094;27;45652;-79
2022/03/05 03:50:54;;;;;;;;;44.25;33.25;;;;;10.83;63.22;101336.53;5078592;27;45320;-77
2022/03/05 03:53:20;;;;;;;;;41.50;35.25;;;;;10.72;62.82;101310.31;5113708;27;45512;-80
2022/03/05 03:55:45;;;;;;;;;41.25;31.00;;;;;10.80;62.79;101331.09;5096367;27;45583;-78
2022/03/05 03:58:11;;;;;;;;;48.25;36.50;;;;;10.29;62.37;101234.88;5104178;27;46004;-73
2022/03/05 04:00:36;;;;;;;;;49.00;35.50;;;;;10.81;62.90;101340.94;5095184;27;45509;-80
2022/03/05 04:03:02;;;;;;;;;32.50;28.75;;;;;10.63;63.00;101313.56;5095425;27;45509;-80
2022/03/05 04:05:28;;;;;;;;;35.25;31.00;;;;;10.77;62.66;101344.34;5095797;27;45655;-78
2022/03/05 04:10:38;;;;;;;;;52.50;38.75;;;;;10.57;63.30;101321.38;5114439;27;45332;-76
2022/03/05 04:13:03;;;;;;;;;45.75;35.25;;;;;10.70;62.45;101337.88;5114695;27;45558;-80
2022/03/05 04:15:29;;;;;;;;;38.75;31.25;;;;;10.58;62.27;101325.88;5096328;27;45571;-78
2022/03/05 04:17:54;;;;;;;;;39.00;31.00;;;;;10.57;63.47;101340.97;5114828;27;46052;-76
2022/03/05 04:20:19;;;;;;;;;35.00;31.25;;;;;10.60;62.65;101326.81;5114951;27;45559;-79
2022/03/05 04:22:45;;;;;;;;;37.25;33.25;;;;;10.65;62.92;101343.94;5096925;27;45443;-81
2022/03/05 04:25:10;;;;;;;;;38.50;30.00;;;;;10.59;63.07;101327.66;5114914;27;45326;-80
2022/03/05 04:27:36;;;;;;;;;37.75;29.00;;;;;10.56;63.34;101340.91;5114806;27;45579;-78
2022/03/05 04:30:02;;;;;;;;;43.75;32.50;;;;;10.57;62.94;101332.06;5114618;27;45279;-80
2022/03/05 04:32:28;;;;;;;;;36.00;29.50;;;;;10.64;63.04;101350.09;5115004;27;45337;-76
2022/03/05 04:34:53;;;;;;;;;37.00;28.00;;;;;10.64;63.65;101342.09;5082879;27;45310;-81
2022/03/05 04:37:19;;;;;;;;;35.25;29.50;;;;;9.88;63.34;101207.59;5109425;27;46252;-82
2022/03/05 04:39:44;;;;;;;;;42.75;33.75;;;;;10.63;63.26;101346.53;5115252;27;45469;-77
2022/03/05 04:42:10;;;;;;;;;39.50;31.00;;;;;10.51;63.16;101336.31;5114620;27;45542;-79
2022/03/05 04:44:35;;;;;;;;;38.50;34.00;;;;;10.62;63.01;101354.50;5095443;27;45594;-81
2022/03/05 04:47:01;;;;;;;;;41.00;34.00;;;;;10.59;63.43;101354.38;5109727;27;46212;-79
2022/03/05 04:49:26;;;;;;;;;46.25;34.50;;;;;10.59;63.83;101349.97;5117986;27;45356;-71
2022/03/05 04:51:51;;;;;;;;;44.50;36.25;;;;;10.47;63.60;101336.16;5118073;27;45617;-79
2022/03/05 04:54:17;;;;;;;;;44.50;34.25;;;;;10.61;63.39;101353.59;5118457;27;46053;-77
2022/03/05 04:56:43;;;;;;;;;33.75;25.50;;;;;10.62;63.00;101351.81;5117839;27;45984;-80
2022/03/05 04:59:08;;;;;;;;;45.75;35.25;;;;;10.62;63.21;101355.41;5112720;27;45456;-82
2022/03/05 05:01:33;;;;;;;;;36.75;31.00;;;;;10.60;62.94;101343.75;5098117;27;45499;-76
2022/03/05 05:03:59;;;;;;;;;37.25;33.00;;;;;10.33;62.97;101304.50;5102423;27;45361;-79
2022/03/05 05:06:24;;;;;;;;;38.25;29.25;;;;;10.58;63.12;101336.56;5117912;27;46163;-78
2022/03/05 05:08:50;;;;;;;;;31.50;26.50;;;;;10.44;63.04;101317.34;5118163;27;45594;-78
2022/03/05 05:11:16;;;;;;;;;42.25;30.75;;;;;10.65;63.20;101350.16;5115102;27;45333;-79
2022/03/05 05:13:41;;;;;;;;;41.50;32.00;;;;;10.35;63.00;101293.00;5098478;27;45413;-82
2022/03/05 05:16:07;;;;;;;;;37.25;28.50;;;;;10.63;63.03;101359.00;5097937;27;45599;-81
2022/03/05 05:18:33;;;;;;;;;34.75;32.50;;;;;10.60;63.34;101364.22;5111875;27;45339;-81
2022/03/05 05:20:59;;;;;;;;;56.00;38.75;;;;;10.56;63.51;101359.63;5097677;27;45379;-80
2022/03/05 05:23:24;;;;;;;;;40.00;32.50;;;;;10.58;63.13;101361.50;5097999;27;45468;-81
2022/03/05 05:25:50;;;;;;;;;34.50;30.25;;;;;10.29;63.24;101313.22;5105272;27;45976;-79
2022/03/05 05:28:15;;;;;;;;;38.00;33.00;;;;;10.13;63.41;101289.50;5117752;27;45440;-73
2022/03/05 05:30:40;;;;;;;;;45.25;34.25;;;;;10.33;63.12;101319.63;5085647;27;45662;-81
2022/03/05 05:33:06;;;;;;;;;34.75;29.50;;;;;10.60;62.98;101369.56;5104199;27;45416;-78
2022/03/05 05:35:31;;;;;;;;;41.50;29.50;;;;;10.61;63.35;101374.97;5097067;27;45483;-79
2022/03/05 05:37:57;;;;;;;;;47.00;34.25;;;;;10.35;63.04;101323.28;5097250;27;45372;-77
2022/03/05 05:40:22;;;;;;;;;39.50;29.25;;;;;10.43;63.37;101352.94;5097136;27;45529;-78
2022/03/05 05:42:48;;;;;;;;;40.50;33.25;;;;;10.48;62.81;101357.59;5097791;27;45510;-79
2022/03/05 05:45:13;;;;;;;;;46.00;33.25;;;;;10.60;63.22;101372.25;5098620;27;45288;-80
2022/03/05 05:47:39;;;;;;;;;36.00;29.25;;;;;10.60;62.67;101381.16;5110855;27;45333;-78
2022/03/05 05:50:06;;;;;;;;;41.25;32.75;;;;;10.32;63.08;101334.72;5117730;27;45470;-82
2022/03/05 05:52:32;;;;;;;;;43.00;33.00;;;;;10.43;63.25;101356.50;5098993;27;45408;-80
2022/03/05 05:54:58;;;;;;;;;36.50;33.00;;;;;10.60;63.33;101381.16;5116484;27;46180;-79
2022/03/05 05:57:23;;;;;;;;;39.00;34.75;;;;;10.29;63.46;101334.59;5116052;27;45397;-79
2022/03/05 05:59:49;;;;;;;;;39.00;33.00;;;;;10.42;62.75;101352.00;5116867;27;45271;-81
2022/03/05 06:02:14;;;;;;;;;43.75;33.00;;;;;10.56;63.73;101379.25;5117069;27;45449;-81
2022/03/05 06:04:40;;;;;;;;;41.75;32.50;;;;;10.30;62.93;101344.44;5116691;27;45846;-79
2022/03/05 06:07:06;;;;;;;;;39.25;29.50;;;;;10.28;63.62;101351.47;5117068;27;45652;-79
2022/03/05 06:09:31;;;;;;;;;45.50;32.75;;;;;10.22;63.62;101339.66;5116425;27;45438;-76
2022/03/05 06:11:57;;;;;;;;;44.75;33.00;;;;;10.46;63.49;101391.34;5116795;27;45476;-81
2022/03/05 06:14:22;;;;;;;;;36.25;31.50;;;;;10.46;63.59;101388.69;5115344;27;45584;-80
2022/03/05 06:16:48;;;;;;;;;52.75;37.25;;;;;10.40;64.09;101375.09;5096452;27;45826;-81
2022/03/05 06:19:13;;;;;;;;;39.50;33.75;;;;;10.49;63.79;101383.47;5096783;27;45472;-80
2022/03/05 06:21:39;;;;;;;;;42.25;35.25;;;;;10.51;63.89;101388.88;5097528;27;45372;-79
2022/03/05 06:24:05;;;;;;;;;34.75;30.25;;;;;10.25;63.95;101347.78;5116053;27;45546;-80
2022/03/05 06:26:31;;;;;;;;;38.75;32.75;;;;;10.54;63.54;101388.03;5096514;27;45567;-78
2022/03/05 06:28:57;;;;;;;;;35.25;30.50;;;;;10.50;63.67;101390.59;5110125;27;45357;-77
2022/03/05 06:31:23;;;;;;;;;45.50;35.50;;;;;10.49;64.09;101385.19;5110319;27;45301;-80
2022/03/05 06:33:48;;;;;;;;;44.75;35.00;;;;;10.31;64.38;101366.69;5115954;27;46317;-78
2022/03/05 06:36:14;;;;;;;;;32.25;31.25;;;;;10.25;64.54;101362.03;5116263;27;45409;-79
2022/03/05 06:38:39;;;;;;;;;46.50;35.50;;;;;10.38;63.77;101389.22;5104753;27;45765;-77
2022/03/05 06:41:04;;;;;;;;;39.50;33.00;;;;;10.44;64.19;101394.81;5096557;27;45308;-79
2022/03/05 06:43:29;;;;;;;;;44.75;34.50;;;;;10.45;63.87;101393.97;5096183;27;45358;-81
2022/03/05 06:45:57;;;;;;;;;42.75;33.75;;;;;10.45;64.12;101396.66;5096812;27;45543;-80
2022/03/05 06:48:23;;;;;;;;;39.25;32.50;;;;;10.18;64.24;101356.41;5095976;27;45345;-78
2022/03/05 06:50:48;;;;;;;;;36.75;32.75;;;;;10.18;63.98;101354.66;5097127;27;45471;-78
2022/03/05 06:53:14;;;;;;;;;34.50;32.00;;;;;9.92;63.61;101308.28;5098296;27;45440;-82
2022/03/05 06:55:39;;;;;;;;;43.75;34.75;;;;;10.44;64.18;101409.09;5098876;27;45385;-81
2022/03/05 06:58:05;;;;;;;;;36.25;27.25;;;;;10.26;63.74;101368.28;5097188;27;45628;-80
2022/03/05 07:00:30;;;;;;;;;37.75;31.00;;;;;10.38;63.76;101391.91;5098759;27;45525;-81
2022/03/05 07:02:55;;;;;;;;;41.50;32.50;;;;;10.48;63.83;101408.34;5115579;27;45523;-80
2022/03/05 07:05:21;;;;;;;;;40.25;33.25;;;;;10.37;63.91;101387.44;5116140;27;45353;-79
2022/03/05 07:07:46;;;;;;;;;36.50;33.00;;;;;10.14;63.84;101344.69;5115450;27;45493;-77
2022/03/05 07:10:12;;;;;;;;;37.50;32.75;;;;;10.55;64.04;101417.50;5114880;27;45566;-80
2022/03/05 07:12:37;;;;;;;;;58.50;42.50;;;;;10.58;63.93;101425.63;5114854;27;45558;-78
2022/03/05 07:15:04;;;;;;;;;39.25;34.00;;;;;10.58;63.46;101425.63;5095688;27;45464;-80
2022/03/05 07:17:29;;;;;;;;;52.75;40.25;;;;;10.40;63.63;101396.47;5095636;27;45480;-83
2022/03/05 07:19:55;;;;;;;;;37.50;29.00;;;;;10.47;63.37;101409.19;5102689;27;45491;-80
2022/03/05 07:22:21;;;;;;;;;31.00;23.50;;;;;10.62;63.58;101432.00;5095068;27;46134;-77
2022/03/05 07:24:46;;;;;;;;;39.25;31.00;;;;;10.38;63.33;101386.56;5094737;27;45474;-80
2022/03/05 07:27:11;;;;;;;;;42.50;34.00;;;;;10.36;63.31;101389.19;5095868;27;45420;-79
2022/03/05 07:29:37;;;;;;;;;40.50;33.50;;;;;10.57;62.82;101436.25;5095781;27;45491;-78
2022/03/05 07:32:03;;;;;;;;;44.25;34.50;;;;;10.53;63.28;101442.34;5095127;27;45417;-78
2022/03/05 07:34:30;;;;;;;;;34.00;31.75;;;;;10.55;63.38;101440.66;5094985;27;45455;-81
2022/03/05 07:36:56;;;;;;;;;43.75;34.50;;;;;10.13;63.15;101394.53;5095093;27;45345;-81
2022/03/05 07:39:21;;;;;;;;;36.75;27.25;;;;;10.32;63.75;101420.19;5095532;27;45361;-78
2022/03/05 07:41:48;;;;;;;;;39.25;33.25;;;;;10.01;63.41;101355.78;5096335;27;46016;-80
2022/03/05 07:44:13;;;;;;;;;41.25;35.50;;;;;10.54;63.58;101442.38;5109348;27;45496;-77
2022/03/05 07:46:39;;;;;;;;;43.00;35.00;;;;;10.49;63.32;101439.56;5116306;27;45440;-72
2022/03/05 07:49:05;;;;;;;;;36.25;32.75;;;;;10.10;63.08;101365.03;5115701;27;45280;-79
2022/03/05 07:51:31;;;;;;;;;44.00;34.50;;;;;10.53;63.54;101458.38;5114651;27;45704;-80
2022/03/05 07:53:57;;;;;;;;;38.50;34.25;;;;;10.54;62.89;101445.06;5114848;27;45492;-80
2022/03/05 07:56:22;;;;;;;;;44.25;35.50;;;;;10.52;62.60;101441.44;5115052;27;45747;-78
2022/03/05 07:58:47;;;;;;;;;38.50;34.50;;;;;10.50;62.80;101437.78;5114769;27;45560;-79
2022/03/05 08:01:13;;;;;;;;;44.00;35.50;;;;;10.50;62.27;101435.13;5097094;27;45985;-76
2022/03/05 08:03:39;;;;;;;;;40.75;35.50;;;;;10.38;62.09;101419.53;5115233;27;45317;-79
2022/03/05 08:06:04;;;;;;;;;44.75;35.50;;;;;10.53;62.71;101447.69;5096083;27;45748;-79
2022/03/05 08:08:29;;;;;;;;;43.75;34.00;;;;;10.50;62.28;101444.03;5089926;27;45466;-78
2022/03/05 08:10:55;;;;;;;;;45.25;33.75;;;;;10.38;62.34;101418.59;5094358;27;46090;-80
2022/03/05 08:13:21;;;;;;;;;43.00;36.25;;;;;10.42;61.95;101439.25;5101704;27;45713;-80
2022/03/05 08:15:46;;;;;;;;;41.50;34.00;;;;;10.55;61.91;101470.03;5094576;27;45881;-76
2022/03/05 08:18:11;;;;;;;;;36.75;28.00;;;;;10.54;62.28;101476.22;5094886;27;45502;-76
2022/03/05 08:20:37;;;;;;;;;45.00;35.00;;;;;10.57;62.55;101463.88;5095536;27;46039;-80
2022/03/05 08:23:02;;;;;;;;;48.00;36.00;;;;;10.60;62.19;101476.47;5098104;27;45359;-78
2022/03/05 08:25:28;;;;;;;;;49.25;33.25;;;;;10.44;62.61;101449.16;5098566;27;45767;-83
2022/03/05 08:27:53;;;;;;;;;41.50;32.75;;;;;10.37;62.15;101431.06;5098259;27;45302;-81
2022/03/05 08:30:20;;;;;;;;;45.50;35.00;;;;;10.38;62.72;101418.59;5098406;27;46690;-82
2022/03/05 08:32:46;;;;;;;;;47.50;33.75;;;;;10.60;61.88;101447.06;5097922;27;45441;-82
2022/03/05 08:35:12;;;;;;;;;41.00;33.50;;;;;10.60;62.11;101447.97;5097918;27;45536;-81
2022/03/05 08:37:38;;;;;;;;;63.25;48.25;;;;;10.51;61.52;101426.25;5098858;27;45456;-79
2022/03/05 08:40:07;;;;;;;;;47.00;36.25;;;;;10.82;61.88;101463.06;5096289;27;46025;-81
2022/03/05 08:42:33;;;;;;;;;54.75;41.50;;;;;10.86;61.90;101464.06;5098267;27;45353;-80
2022/03/05 08:44:58;;;;;;;;;56.75;46.75;;;;;10.72;61.51;101433.25;5098460;27;45656;-82
2022/03/05 08:47:24;;;;;;;;;59.00;46.00;;;;;10.58;61.51;101395.34;5099233;27;45425;-79
2022/03/05 08:49:50;;;;;;;;;52.00;37.75;;;;;10.78;61.52;101421.00;5099058;27;46539;-82
2022/03/05 08:52:15;;;;;;;;;50.25;37.75;;;;;11.04;60.95;101475.44;5114147;27;45417;-83
2022/03/05 08:54:40;;;;;;;;;46.00;36.25;;;;;10.63;61.22;101393.75;5084737;27;45614;-82
2022/03/05 08:57:08;;;;;;;;;49.50;38.50;;;;;11.16;61.46;101472.28;5113341;27;45439;-76
2022/03/05 08:59:34;;;;;;;;;44.00;35.50;;;;;11.05;60.99;101449.59;5096701;27;46886;-79
2022/03/05 09:01:59;;;;;;;;;39.75;30.75;;;;;10.93;61.20;101412.63;5080453;27;45505;-80
2022/03/05 09:04:25;;;;;;;;;41.25;35.25;;;;;11.12;60.73;101453.38;5118276;27;45461;-83
2022/03/05 09:06:50;;;;;;;;;41.50;35.50;;;;;11.20;61.21;101484.91;5118334;27;45507;-80
2022/03/05 09:09:15;;;;;;;;;42.75;37.00;;;;;11.20;60.66;101454.56;5097952;27;45620;-83
2022/03/05 09:11:41;;;;;;;;;49.75;33.50;;;;;11.18;60.65;101435.78;5097926;27;45553;-82
2022/03/05 09:14:07;;;;;;;;;40.25;36.50;;;;;11.17;60.09;101425.03;5097960;27;45445;-79
2022/03/05 09:16:37;;;;;;;;;51.50;39.25;;;;;11.43;60.55;101472.34;5084538;27;45438;-81
2022/03/05 09:19:03;;;;;;;;;42.25;33.75;;;;;11.50;60.43;101464.50;5116575;27;46575;-76
2022/03/05 09:21:29;;;;;;;;;57.50;38.50;;;;;11.58;59.48;101468.34;5098199;27;45696;-81
2022/03/05 09:23:54;;;;;;;;;41.25;35.00;;;;;11.57;58.94;101463.88;5116542;27;45510;-82
2022/03/05 09:26:19;;;;;;;;;50.50;36.50;;;;;11.57;59.58;101474.59;5116751;27;45492;-79
2022/03/05 09:28:45;;;;;;;;;49.00;38.75;;;;;11.56;59.45;101462.94;5098624;27;46785;-77
2022/03/05 09:31:11;;;;;;;;;43.75;35.75;;;;;11.68;59.40;101467.84;5116679;27;45588;-76
2022/03/05 09:33:37;;;;;;;;;50.25;38.00;;;;;11.73;58.57;101465.28;5115992;27;45339;-80
2022/03/05 09:36:03;;;;;;;;;54.75;43.25;;;;;11.76;59.04;101487.72;5116229;27;45454;-80
2022/03/05 09:38:28;;;;;;;;;49.50;34.25;;;;;11.67;59.22;101473.13;5116219;27;46378;-80
2022/03/05 09:40:54;;;;;;;;;46.25;37.25;;;;;11.50;59.69;101436.00;5116747;27;45460;-77
2022/03/05 09:43:20;;;;;;;;;45.25;35.00;;;;;11.81;59.03;101469.13;5116737;27;45472;-80
2022/03/05 09:45:46;;;;;;;;;36.00;33.25;;;;;11.63;58.67;101434.63;5116780;27;45301;-80
2022/03/05 09:48:16;;;;;;;;;50.00;34.75;;;;;11.81;58.43;101458.41;5094789;27;45925;-77
2022/03/05 09:50:43;;;;;;;;;40.50;32.50;;;;;11.20;58.15;101352.94;5096541;27;45405;-77
2022/03/05 09:53:08;;;;;;;;;40.00;34.00;;;;;11.76;58.10;101450.25;5098785;27;45311;-79
2022/03/05 09:55:34;;;;;;;;;44.50;34.00;;;;;11.88;57.63;101465.81;5116359;27;45428;-78
2022/03/05 09:57:59;;;;;;;;;42.75;35.00;;;;;12.03;57.94;101473.47;5097150;27;47985;-78
2022/03/05 10:00:26;;;;;;;;;43.25;34.00;;;;;12.07;57.29;101451.25;5116143;27;45464;-77
2022/03/05 10:02:52;;;;;;;;;41.75;35.00;;;;;12.11;56.55;101433.50;5116524;27;45470;-78
2022/03/05 10:05:29;;;;;;;;;45.75;36.50;;;;;12.24;56.87;101451.81;5116550;27;45410;-80
2022/03/05 10:08:15;;;;;;;;;55.50;43.00;;;;;12.42;56.73;101466.59;5116253;27;45573;-79
2022/03/05 10:10:56;;;;;;;;;45.75;37.50;;;;;12.08;56.12;101388.81;5115807;27;45467;-79
2022/03/05 10:13:23;;;;;;;;;47.75;38.50;;;;;12.58;56.21;101460.84;5115771;27;45653;-77
2022/03/05 10:15:52;;;;;;;;;44.75;36.75;;;;;12.70;56.36;101460.28;5116396;27;45604;-78
2022/03/05 10:18:17;;;;;;;;;49.25;38.75;;;;;12.80;55.87;101456.09;5116482;27;46398;-77
2022/03/05 10:20:50;;;;;;;;;45.75;35.00;;;;;12.96;54.78;101447.63;5117007;27;45608;-78
2022/03/05 10:23:17;;;;;;;;;40.25;34.75;;;;;13.31;54.48;101427.97;5116141;27;45477;-73
2022/03/05 10:25:45;;;;;;;;;46.75;37.00;;;;;13.95;53.58;101455.56;5115961;27;45508;-74
2022/03/05 10:28:12;;;;;;;;;41.50;34.25;;;;;14.45;52.63;101446.84;5102367;27;45691;-81
2022/03/05 10:30:41;;;;;;;;;40.75;33.00;;;;;14.78;50.82;101446.66;5095691;27;45588;-79
2022/03/05 10:33:07;;;;;;;;;50.50;37.75;;;;;14.98;50.19;101455.16;5077435;27;45449;-82
2022/03/05 10:35:33;;;;;;;;;43.50;34.25;;;;;14.84;49.56;101430.66;5083401;27;45414;-78
2022/03/05 10:37:58;;;;;;;;;48.50;40.00;;;;;14.34;49.42;101357.91;5109051;27;46042;-78
2022/03/05 10:40:32;;;;;;;;;45.50;35.00;;;;;14.67;49.60;101422.25;5095404;27;45278;-75
2022/03/05 10:43:03;;;;;;;;;45.25;33.75;;;;;14.52;50.20;101398.59;5090541;27;45285;-78
2022/03/05 10:45:29;;;;;;;;;53.00;40.25;;;;;14.64;49.81;101438.31;5094643;27;45359;-74
2022/03/05 10:47:57;;;;;;;;;39.25;32.75;;;;;14.66;49.04;101441.94;5102253;27;45648;-76
2022/03/05 10:50:25;;;;;;;;;44.75;36.50;;;;;14.19;48.84;101375.53;5102394;27;45451;-77
2022/03/05 10:52:53;;;;;;;;;46.25;36.50;;;;;14.55;48.13;101439.00;5108497;27;45883;-76
2022/03/05 10:55:24;;;;;;;;;47.00;36.50;;;;;14.35;48.25;101389.28;5115295;27;45431;-77
2022/03/05 10:58:00;;;;;;;;;47.00;36.75;;;;;14.63;47.19;101454.44;5095491;27;46712;-79
2022/03/05 11:00:26;;;;;;;;;45.50;37.25;;;;;14.15;47.60;101362.88;5109868;27;45497;-80
2022/03/05 11:02:52;;;;;;;;;45.00;34.50;;;;;14.51;46.38;101442.50;5083718;27;45531;-81
2022/03/05 11:05:21;;;;;;;;;47.50;36.25;;;;;14.11;46.30;101387.88;5102029;27;45336;-78